Time;durP1;ratioP1;P1;durP2;ratioP2;P2;SDS_P1;SDS_P2;PMS_P1;PMS_P2;Temp;Humidity;BMP_temperature;BMP_pressure;BME280_temperature;BME280_humidity;BME280_pressure;Samples;Min_cycle;Max_cycle;Signal;HPM_P1;HPM_P2
2022/09/21 00:01:25;;;;;;;11.52;3.85;;;;;;;13.29;67.98;102545.00;6272871;22;20079;-59
2022/09/21 00:03:56;;;;;;;6.90;4.05;;;;;;;13.14;67.47;102539.75;6269693;22;20039;-58
2022/09/21 00:06:23;;;;;;;6.97;3.85;;;;;;;13.16;67.56;102541.22;6274379;22;20356;-58
2022/09/21 00:08:49;;;;;;;4.50;3.47;;;;;;;13.11;67.20;102532.69;6272932;22;20053;-58
2022/09/21 00:11:20;;;;;;;4.78;3.60;;;;;;;13.09;67.27;102542.38;6275175;22;20008;-58
2022/09/21 00:13:46;;;;;;;8.93;4.35;;;;;;;13.05;66.74;102543.91;6273539;22;19999;-58
2022/09/21 00:16:13;;;;;;;7.63;3.63;;;;;;;13.02;66.84;102543.28;6274001;22;20011;-58
2022/09/21 00:18:39;;;;;;;5.03;3.50;;;;;;;13.04;67.04;102543.03;6273985;22;20008;-58
2022/09/21 00:21:09;;;;;;;6.13;3.92;;;;;;;13.02;67.22;102548.88;6273722;22;20004;-59
2022/09/21 00:23:35;;;;;;;6.53;4.05;;;;;;;13.02;67.32;102546.06;6273819;22;20480;-58
2022/09/21 00:26:23;;;;;;;7.90;4.10;;;;;;;12.97;67.38;102547.84;6273821;22;20024;-58
2022/09/21 00:28:57;;;;;;;9.35;4.15;;;;;;;12.95;67.19;102550.84;6273957;22;20003;-58
2022/09/21 00:31:23;;;;;;;6.07;4.13;;;;;;;12.95;67.20;102548.06;6273320;22;20089;-58
2022/09/21 00:33:50;;;;;;;5.13;3.65;;;;;;;12.89;66.55;102546.19;6273969;22;20015;-58
2022/09/21 00:36:16;;;;;;;9.32;3.67;;;;;;;12.89;66.74;102549.00;6273662;22;20027;-58
2022/09/21 00:38:42;;;;;;;6.75;3.78;;;;;;;12.86;67.33;102546.66;6273388;22;20003;-58
2022/09/21 00:41:09;;;;;;;6.38;4.07;;;;;;;12.84;67.33;102548.78;6273625;22;20015;-58
2022/09/21 00:43:37;;;;;;;5.95;3.75;;;;;;;12.81;67.51;102540.03;6273200;22;20000;-58
2022/09/21 00:46:13;;;;;;;5.55;4.20;;;;;;;12.85;67.51;102546.84;6273667;22;20332;-58
2022/09/21 00:48:39;;;;;;;7.70;3.95;;;;;;;12.84;67.35;102551.56;6272877;22;20309;-58
2022/09/21 00:51:06;;;;;;;6.60;3.63;;;;;;;12.82;67.80;102545.41;6272870;22;20008;-58
2022/09/21 00:53:33;;;;;;;10.05;4.30;;;;;;;12.78;68.07;102545.00;6272729;22;20000;-58
2022/09/21 00:56:01;;;;;;;4.95;3.78;;;;;;;12.77;67.81;102546.09;6273677;22;20008;-58
2022/09/21 00:58:32;;;;;;;9.25;4.15;;;;;;;12.77;68.14;102548.88;6272518;22;20079;-58
2022/09/21 01:00:59;;;;;;;5.53;3.60;;;;;;;12.75;68.19;102551.00;6272646;22;20008;-58
2022/09/21 01:03:25;;;;;;;6.00;3.92;;;;;;;12.77;68.19;102543.31;6273807;22;20079;-58
2022/09/21 01:05:51;;;;;;;5.30;3.92;;;;;;;12.79;68.28;102545.84;6272777;22;20023;-58
2022/09/21 01:08:18;;;;;;;4.47;3.72;;;;;;;12.78;68.15;102544.16;6273685;22;20027;-58
2022/09/21 01:11:02;;;;;;;4.32;3.72;;;;;;;12.80;68.12;102549.47;6273761;22;20012;-58
2022/09/21 01:13:45;;;;;;;6.55;3.95;;;;;;;12.77;68.07;102548.88;6272781;22;20015;-58
2022/09/21 01:16:45;;;;;;;6.15;3.95;;;;;;;12.76;68.55;102557.44;6273728;22;20003;-58
2022/09/21 01:19:30;;;;;;;4.97;3.70;;;;;;;12.77;68.12;102542.41;6272169;22;20074;-59
2022/09/21 01:22:37;;;;;;;8.18;4.13;;;;;;;12.76;67.96;102546.28;6273786;22;20003;-59
2022/09/21 01:25:23;;;;;;;5.28;3.60;;;;;;;12.76;67.88;102549.94;6273246;22;20447;-58
2022/09/21 01:28:29;;;;;;;9.65;3.90;;;;;;;12.72;67.92;102554.25;6274546;22;20007;-58
2022/09/21 01:30:58;;;;;;;6.68;3.80;;;;;;;12.67;68.28;102547.66;6273784;22;20020;-58
2022/09/21 01:33:35;;;;;;;5.45;3.92;;;;;;;12.66;68.54;102546.81;6272281;22;20019;-59
2022/09/21 01:36:06;;;;;;;5.38;3.90;;;;;;;12.67;68.83;102550.44;6273483;22;20004;-59
2022/09/21 01:38:41;;;;;;;5.45;3.70;;;;;;;12.66;68.55;102546.81;6273871;22;20024;-59
2022/09/21 01:41:11;;;;;;;4.90;3.83;;;;;;;12.62;68.63;102547.50;6271614;22;20003;-59
2022/09/21 01:43:45;;;;;;;7.32;3.65;;;;;;;12.63;69.01;102549.19;6273540;22;20026;-59
2022/09/21 01:46:15;;;;;;;8.60;3.92;;;;;;;12.61;68.90;102542.97;6272615;22;20014;-59
2022/09/21 01:48:46;;;;;;;7.50;4.13;;;;;;;12.60;68.92;102541.28;6273930;22;20079;-59
2022/09/21 01:51:14;;;;;;;6.28;4.00;;;;;;;12.56;68.76;102540.88;6273048;22;20486;-59
2022/09/21 01:53:45;;;;;;;5.03;4.05;;;;;;;12.57;68.89;102537.00;6273864;22;20330;-59
2022/09/21 01:56:20;;;;;;;5.20;3.78;;;;;;;12.57;68.59;102542.56;6273975;22;20056;-59
2022/09/21 01:59:23;;;;;;;6.00;3.60;;;;;;;12.64;68.56;102550.88;6275803;22;20008;-59
2022/09/21 02:01:55;;;;;;;8.43;3.88;;;;;;;12.58;68.53;102543.44;6274306;22;20087;-59
2022/09/21 02:04:20;;;;;;;5.77;3.87;;;;;;;12.58;68.54;102543.44;6275097;22;20098;-59
2022/09/21 02:06:48;;;;;;;6.45;4.32;;;;;;;12.57;68.70;102533.38;6275749;22;20326;-59
2022/09/21 02:09:14;;;;;;;5.43;3.63;;;;;;;12.53;68.67;102542.16;6274903;22;20371;-59
2022/09/21 02:11:42;;;;;;;6.30;3.80;;;;;;;12.53;68.62;102544.94;6274238;22;20003;-58
2022/09/21 02:14:15;;;;;;;11.05;3.88;;;;;;;12.50;68.43;102547.34;6276538;22;20023;-59
2022/09/21 02:16:55;;;;;;;;;;;;;;;12.75;67.98;102544.59;6274996;22;20004;-59
2022/09/21 02:19:36;;;;;;;4.07;3.38;;;;;;;12.53;68.19;102532.97;6274841;22;20354;-59
2022/09/21 02:22:06;;;;;;;6.43;4.05;;;;;;;12.46;68.22;102534.97;6275479;22;20011;-59
2022/09/21 02:24:42;;;;;;;6.63;3.65;;;;;;;12.46;68.52;102535.81;6274578;22;20015;-59
2022/09/21 02:27:28;;;;;;;6.55;3.90;;;;;;;12.47;68.33;102545.88;6275619;22;20007;-59
2022/09/21 02:30:04;;;;;;;5.88;3.47;;;;;;;12.38;67.67;102537.97;6275083;22;20339;-59
2022/09/21 02:32:57;;;;;;;6.35;4.10;;;;;;;12.41;67.58;102546.75;6275475;22;20023;-58
2022/09/21 02:35:35;;;;;;;4.53;3.78;;;;;;;12.34;67.63;102542.31;6262760;22;20022;-59
2022/09/21 02:38:38;;;;;;;4.75;3.53;;;;;;;12.37;67.55;102548.28;6275014;22;20000;-58
2022/09/21 02:41:05;;;;;;;;;;;;;;;12.53;67.07;102547.72;6275642;22;20011;-58
2022/09/21 02:43:40;;;;;;;5.43;3.83;;;;;;;12.31;67.75;102539.97;6274756;22;19907;-59
2022/09/21 02:46:13;;;;;;;6.32;3.70;;;;;;;12.23;67.16;102538.31;6275181;22;20011;-59
2022/09/21 02:48:48;;;;;;;7.45;3.85;;;;;;;12.20;67.58;102535.97;6275796;22;20038;-58
2022/09/21 02:51:18;;;;;;;5.53;3.50;;;;;;;12.17;67.49;102537.25;6274803;22;20003;-59
2022/09/21 02:53:46;;;;;;;5.35;3.20;;;;;;;12.16;67.50;102541.13;6273744;22;20035;-59
2022/09/21 02:56:12;;;;;;;5.15;3.42;;;;;;;12.12;67.65;102534.31;6275183;22;20033;-58
2022/09/21 02:58:42;;;;;;;6.13;3.17;;;;;;;12.07;67.37;102536.06;6273356;22;20007;-59
2022/09/21 03:01:11;;;;;;;7.85;3.53;;;;;;;12.06;67.10;102528.75;6274446;22;20039;-58
2022/09/21 03:03:36;;;;;;;6.18;3.70;;;;;;;12.04;67.00;102535.41;6274757;22;20093;-59
2022/09/21 03:06:01;;;;;;;5.35;3.30;;;;;;;12.07;67.47;102541.63;6273453;22;20004;-59
2022/09/21 03:08:27;;;;;;;6.15;3.72;;;;;;;12.02;66.99;102536.69;6274705;22;20349;-59
2022/09/21 03:10:53;;;;;;;3.83;3.00;;;;;;;12.00;67.13;102539.72;6274701;22;20081;-59
2022/09/21 03:13:19;;;;;;;5.28;3.85;;;;;;;11.95;67.31;102539.53;6275656;22;20004;-59
2022/09/21 03:15:45;;;;;;;4.88;3.38;;;;;;;11.93;67.03;102540.81;6273921;22;20428;-59
2022/09/21 03:18:11;;;;;;;5.70;3.50;;;;;;;11.91;67.59;102538.28;6274434;22;20006;-59
2022/09/21 03:20:38;;;;;;;9.63;3.40;;;;;;;11.87;67.19;102539.78;6274262;22;20008;-59
2022/09/21 03:23:03;;;;;;;5.65;4.00;;;;;;;11.86;67.44;102540.00;6276039;22;20485;-59
2022/09/21 03:25:29;;;;;;;5.18;3.70;;;;;;;11.86;67.38;102546.41;6274662;22;20456;-59
2022/09/21 03:27:56;;;;;;;8.65;3.40;;;;;;;11.88;66.92;102548.97;6274348;22;20042;-58
2022/09/21 03:30:22;;;;;;;7.53;3.78;;;;;;;11.83;66.72;102544.09;6275017;22;20000;-58
2022/09/21 03:32:50;;;;;;;5.82;3.78;;;;;;;11.79;67.00;102551.13;6273336;22;20103;-58
2022/09/21 03:35:16;;;;;;;4.78;3.40;;;;;;;11.81;67.00;102548.97;6274557;22;20319;-58
2022/09/21 03:37:41;;;;;;;8.43;3.70;;;;;;;11.79;67.01;102542.78;6275361;22;20031;-58
2022/09/21 03:40:07;;;;;;;6.15;3.35;;;;;;;11.75;66.73;102550.72;6273356;22;20039;-58
2022/09/21 03:42:33;;;;;;;7.18;4.05;;;;;;;11.71;66.39;102552.22;6274484;22;20394;-58
2022/09/21 03:44:58;;;;;;;4.15;3.58;;;;;;;11.69;66.74;102561.84;6274091;22;20008;-58
2022/09/21 03:47:23;;;;;;;5.28;3.20;;;;;;;11.67;66.73;102561.19;6274460;22;20061;-58
2022/09/21 03:49:49;;;;;;;5.72;3.30;;;;;;;11.64;66.75;102558.88;6274343;22;20011;-58
2022/09/21 03:52:14;;;;;;;6.07;3.85;;;;;;;11.65;66.68;102560.59;6274854;22;20070;-58
2022/09/21 03:54:39;;;;;;;5.55;3.70;;;;;;;11.61;66.63;102560.16;6274099;22;20365;-58
2022/09/21 03:57:04;;;;;;;4.57;3.50;;;;;;;11.58;66.65;102560.59;6275190;22;20003;-59
2022/09/21 03:59:30;;;;;;;6.80;3.72;;;;;;;11.57;66.85;102564.47;6274132;22;20079;-58
2022/09/21 04:01:55;;;;;;;7.68;3.83;;;;;;;11.58;66.59;102557.81;6273686;22;19999;-58
2022/09/21 04:04:20;;;;;;;5.70;3.63;;;;;;;11.58;66.60;102568.09;6273718;22;20003;-60
2022/09/21 04:06:46;;;;;;;4.18;3.47;;;;;;;11.58;66.93;102556.97;6275108;22;19996;-59
2022/09/21 04:09:11;;;;;;;4.25;3.40;;;;;;;11.59;66.84;102565.06;6274454;22;20022;-58
2022/09/21 04:11:37;;;;;;;6.28;3.80;;;;;;;11.55;66.34;102556.34;6272218;22;20012;-58
2022/09/21 04:14:02;;;;;;;4.35;3.80;;;;;;;11.54;66.81;102562.97;6274648;22;20070;-59
2022/09/21 04:16:27;;;;;;;3.95;3.40;;;;;;;11.53;66.89;102564.03;6273763;22;20008;-58
2022/09/21 04:18:53;;;;;;;4.65;3.42;;;;;;;11.51;67.03;102563.41;6274381;22;20026;-58
2022/09/21 04:21:19;;;;;;;6.43;3.20;;;;;;;11.51;66.88;102563.41;6274783;22;20016;-58
2022/09/21 04:23:45;;;;;;;4.78;3.50;;;;;;;11.46;67.01;102563.19;6272510;22;20027;-58
2022/09/21 04:26:28;;;;;;;4.68;3.63;;;;;;;11.50;66.96;102556.13;6274752;22;19999;-59
2022/09/21 04:28:54;;;;;;;5.30;3.75;;;;;;;11.43;66.79;102563.63;6273119;22;20233;-58
2022/09/21 04:31:20;;;;;;;4.93;3.67;;;;;;;11.43;66.74;102560.00;6273264;22;20016;-58
2022/09/21 04:33:50;;;;;;;4.88;3.42;;;;;;;11.43;67.41;102562.75;6273872;22;20011;-59
2022/09/21 04:36:17;;;;;;;6.68;3.30;;;;;;;11.41;66.84;102563.00;6273974;22;20007;-58
2022/09/21 04:38:43;;;;;;;4.90;3.70;;;;;;;11.38;67.04;102560.66;6273574;22;19999;-58
2022/09/21 04:41:08;;;;;;;8.27;3.80;;;;;;;11.35;66.65;102569.41;6274692;22;20011;-58
2022/09/21 04:43:33;;;;;;;5.57;3.25;;;;;;;11.34;66.94;102569.63;6273321;22;20011;-58
2022/09/21 04:46:04;;;;;;;5.50;3.58;;;;;;;11.35;66.88;102571.34;6274040;22;20015;-58
2022/09/21 04:48:29;;;;;;;4.03;3.50;;;;;;;11.33;67.00;102567.94;6274205;22;20030;-58
2022/09/21 04:50:55;;;;;;;4.68;3.70;;;;;;;11.32;67.16;102572.66;6273114;22;20007;-58
2022/09/21 04:53:20;;;;;;;5.43;3.47;;;;;;;11.29;66.82;102570.28;6272476;22;20050;-59
2022/09/21 04:55:45;;;;;;;6.53;3.60;;;;;;;11.28;66.54;102569.44;6274053;22;20007;-58
2022/09/21 04:58:11;;;;;;;4.22;3.72;;;;;;;11.25;66.95;102577.34;6273280;22;20424;-59
2022/09/21 05:00:36;;;;;;;5.55;3.58;;;;;;;11.20;66.89;102566.00;6272850;22;20090;-59
2022/09/21 05:03:01;;;;;;;5.45;3.70;;;;;;;11.21;67.11;102565.81;6274178;22;20446;-58
2022/09/21 05:05:26;;;;;;;6.13;3.97;;;;;;;11.21;67.34;102573.31;6273013;22;20004;-58
2022/09/21 05:07:52;;;;;;;8.05;4.00;;;;;;;11.20;67.01;102571.56;6273849;22;20015;-58
2022/09/21 05:10:17;;;;;;;5.15;4.03;;;;;;;11.22;66.97;102578.63;6274497;22;20113;-58
2022/09/21 05:12:42;;;;;;;4.63;3.85;;;;;;;11.19;67.07;102572.66;6273965;22;20006;-58
2022/09/21 05:15:10;;;;;;;5.72;4.20;;;;;;;11.17;66.89;102578.44;6274913;22;20000;-58
2022/09/21 05:17:35;;;;;;;5.20;4.05;;;;;;;11.16;66.98;102575.84;6273630;22;20033;-58
2022/09/21 05:20:01;;;;;;;5.22;3.95;;;;;;;11.14;66.89;102581.63;6273654;22;20046;-57
2022/09/21 05:22:26;;;;;;;5.63;3.88;;;;;;;11.16;66.96;102581.41;6272658;22;20057;-58
2022/09/21 05:24:52;;;;;;;5.13;4.00;;;;;;;11.13;67.05;102584.63;6272651;22;20012;-58
2022/09/21 05:27:17;;;;;;;6.45;4.30;;;;;;;11.14;66.82;102580.78;6272091;22;20451;-58
2022/09/21 05:29:42;;;;;;;5.70;3.65;;;;;;;11.12;66.74;102583.78;6272496;22;20031;-58
2022/09/21 05:32:26;;;;;;;5.45;3.97;;;;;;;11.07;66.95;102587.19;6272532;22;20010;-59
2022/09/21 05:35:11;;;;;;;5.10;3.85;;;;;;;11.15;67.23;102588.03;6272006;22;20030;-59
2022/09/21 05:38:01;;;;;;;9.75;4.53;;;;;;;11.15;67.29;102588.91;6272891;22;20435;-59
2022/09/21 05:40:27;;;;;;;9.05;4.38;;;;;;;11.05;66.95;102596.81;6271310;22;20725;-59
2022/09/21 05:42:52;;;;;;;9.35;4.20;;;;;;;11.08;66.99;102596.38;6273563;22;20034;-59
2022/09/21 05:45:20;;;;;;;6.60;4.20;;;;;;;11.07;66.90;102597.44;6273470;22;20038;-59
2022/09/21 05:47:58;;;;;;;7.78;4.70;;;;;;;11.09;67.32;102603.66;6272505;22;20004;-59
2022/09/21 05:50:35;;;;;;;6.80;4.40;;;;;;;11.08;67.83;102607.50;6273675;22;20030;-59
2022/09/21 05:53:12;;;;;;;7.45;4.80;;;;;;;11.07;67.50;102603.84;6273522;22;20489;-59
2022/09/21 05:55:40;;;;;;;9.50;5.10;;;;;;;11.11;67.62;102601.50;6273508;22;20043;-59
2022/09/21 05:58:25;;;;;;;8.05;4.55;;;;;;;11.17;67.78;102605.38;6273836;22;20008;-59
2022/09/21 06:00:58;;;;;;;11.68;4.90;;;;;;;11.13;68.12;102602.16;6272279;22;20094;-59
2022/09/21 06:03:31;;;;;;;8.90;4.90;;;;;;;11.12;68.04;102610.69;6274391;22;20161;-59
2022/09/21 06:05:58;;;;;;;7.13;4.93;;;;;;;11.11;68.27;102609.84;6273313;22;20003;-59
2022/09/21 06:08:24;;;;;;;10.18;5.43;;;;;;;11.11;68.64;102607.06;6272574;22;20035;-59
2022/09/21 06:10:50;;;;;;;10.07;5.47;;;;;;;11.19;68.75;102611.56;6272464;22;20399;-59
2022/09/21 06:13:15;;;;;;;7.93;4.93;;;;;;;11.19;68.47;102609.63;6271986;22;20003;-59
2022/09/21 06:15:41;;;;;;;9.20;6.10;;;;;;;11.21;68.67;102620.56;6273130;22;20031;-58
2022/09/21 06:18:07;;;;;;;10.80;5.90;;;;;;;11.23;68.85;102615.63;6273359;22;20011;-58
2022/09/21 06:20:33;;;;;;;12.93;5.78;;;;;;;11.27;68.51;102626.09;6272513;22;20596;-58
2022/09/21 06:23:10;;;;;;;12.75;6.13;;;;;;;11.34;68.57;102628.88;6272773;22;20364;-58
2022/09/21 06:25:36;;;;;;;10.35;6.32;;;;;;;11.30;68.68;102622.03;6272969;22;20008;-58
2022/09/21 06:28:10;;;;;;;11.82;6.55;;;;;;;11.33;68.44;102621.59;6273279;22;20065;-58
2022/09/21 06:30:36;;;;;;;13.20;6.90;;;;;;;11.34;68.77;102614.13;6272668;22;20004;-58
2022/09/21 06:33:03;;;;;;;16.52;7.18;;;;;;;11.36;68.71;102626.75;6271228;22;20046;-58
2022/09/21 06:35:30;;;;;;;9.65;7.57;;;;;;;11.41;69.00;102623.31;6271861;22;20061;-58
2022/09/21 06:38:00;;;;;;;13.70;8.93;;;;;;;11.46;69.42;102620.72;6268723;22;20006;-57
2022/09/21 06:40:28;;;;;;;18.60;12.38;;;;;;;11.52;69.21;102625.44;6273143;22;20011;-58
2022/09/21 06:42:58;;;;;;;17.55;12.50;;;;;;;11.57;69.55;102627.56;6275161;22;20012;-58
2022/09/21 06:45:24;;;;;;;24.17;15.77;;;;;;;11.58;69.38;102620.94;6274583;22;20428;-57
2022/09/21 06:47:49;;;;;;;24.13;15.65;;;;;;;11.65;69.21;102627.34;6273923;22;20409;-57
2022/09/21 06:50:15;;;;;;;23.02;16.02;;;;;;;11.66;69.24;102623.47;6272967;22;20003;-58
2022/09/21 06:52:40;;;;;;;20.05;14.15;;;;;;;11.70;69.74;102621.97;6273745;22;20325;-58
2022/09/21 06:55:08;;;;;;;22.92;14.50;;;;;;;11.72;69.35;102620.69;6274650;22;20061;-58
2022/09/21 06:57:34;;;;;;;21.83;12.82;;;;;;;11.75;69.68;102622.16;6272719;22;20007;-58
2022/09/21 06:59:59;;;;;;;15.32;12.25;;;;;;;11.80;69.47;102619.59;6273860;22;20011;-58
2022/09/21 07:02:25;;;;;;;14.85;10.77;;;;;;;11.79;70.00;102631.81;6273300;22;20006;-58
2022/09/21 07:04:50;;;;;;;17.58;10.02;;;;;;;11.79;70.21;102634.59;6273338;22;19996;-58
2022/09/21 07:07:15;;;;;;;14.85;10.00;;;;;;;11.85;69.60;102630.97;6273586;22;20417;-59
2022/09/21 07:09:40;;;;;;;14.30;9.88;;;;;;;11.88;69.67;102629.66;6273542;22;20042;-58
2022/09/21 07:12:07;;;;;;;13.25;10.20;;;;;;;11.90;69.95;102631.16;6271834;22;20335;-57
2022/09/21 07:14:32;;;;;;;12.43;8.95;;;;;;;11.96;69.73;102629.44;6273314;22;20704;-58
2022/09/21 07:16:58;;;;;;;11.40;6.45;;;;;;;12.19;73.81;102637.28;6274045;22;20090;-58
2022/09/21 07:19:23;;;;;;;10.82;7.97;;;;;;;12.13;70.05;102636.22;6275111;22;20081;-58
2022/09/21 07:21:49;;;;;;;11.57;8.15;;;;;;;12.19;69.66;102629.78;6275240;22;20008;-57
2022/09/21 07:24:14;;;;;;;11.13;7.82;;;;;;;12.18;69.84;102633.63;6273987;22;20008;-59
2022/09/21 07:26:40;;;;;;;8.18;7.38;;;;;;;12.26;69.71;102630.59;6275731;22;20332;-58
2022/09/21 07:29:05;;;;;;;9.30;7.88;;;;;;;12.29;69.80;102629.28;6273451;22;20011;-58
2022/09/21 07:31:30;;;;;;;11.57;7.53;;;;;;;12.35;69.49;102628.41;6274625;22;20008;-58
2022/09/21 07:33:59;;;;;;;8.68;7.20;;;;;;;12.40;69.67;102628.59;6273731;22;20050;-58
2022/09/21 07:36:24;;;;;;;9.40;7.10;;;;;;;12.47;69.40;102634.13;6275691;22;20008;-58
2022/09/21 07:38:50;;;;;;;9.35;7.40;;;;;;;12.56;69.14;102624.44;6273763;22;20298;-58
2022/09/21 07:41:15;;;;;;;10.20;7.28;;;;;;;12.62;69.19;102617.13;6273815;22;20012;-58
2022/09/21 07:43:41;;;;;;;11.20;7.07;;;;;;;12.72;68.69;102626.69;6274724;22;20008;-60
2022/09/21 07:46:08;;;;;;;12.38;8.85;;;;;;;12.80;69.54;102622.78;6274954;22;20008;-59
2022/09/21 07:48:33;;;;;;;12.75;7.40;;;;;;;12.95;69.47;102628.88;6274803;22;20014;-59
2022/09/21 07:51:07;;;;;;;11.95;6.85;;;;;;;13.08;69.26;102622.34;6274482;22;20086;-58
2022/09/21 07:53:33;;;;;;;12.43;6.57;;;;;;;13.22;68.12;102623.97;6273624;22;20004;-59
2022/09/21 07:56:17;;;;;;;11.20;5.80;;;;;;;13.38;67.68;102616.13;6274185;22;20114;-59
2022/09/21 08:01:28;;;;;;;5.85;5.20;;;;;;;13.61;66.25;102623.84;6272895;22;20018;-60
2022/09/21 08:03:55;;;;;;;9.55;4.32;;;;;;;13.78;66.12;102621.31;6274831;22;20011;-59
2022/09/21 08:06:23;;;;;;;7.50;3.90;;;;;;;13.93;64.72;102619.84;6269862;22;20035;-59
2022/09/21 08:08:49;;;;;;;8.05;4.22;;;;;;;14.06;64.56;102617.97;6272788;22;20177;-59
2022/09/21 08:11:16;;;;;;;7.43;4.35;;;;;;;14.19;63.75;102618.66;6274088;22;20035;-60
2022/09/21 08:13:41;;;;;;;8.45;4.30;;;;;;;14.33;62.89;102604.50;6273579;22;20018;-59
2022/09/21 08:16:06;;;;;;;6.28;3.15;;;;;;;14.44;62.28;102609.31;6274871;22;20030;-59
2022/09/21 08:18:35;;;;;;;7.68;3.22;;;;;;;14.60;62.39;102608.66;6275036;22;20371;-59
2022/09/21 08:21:00;;;;;;;6.15;2.83;;;;;;;14.70;60.89;102608.97;6274216;22;20016;-60
2022/09/21 08:23:27;;;;;;;7.35;2.90;;;;;;;14.81;61.11;102610.06;6274679;22;20082;-59
2022/09/21 08:25:59;;;;;;;6.88;2.70;;;;;;;14.92;60.43;102616.78;6274535;22;20006;-59
2022/09/21 08:28:24;;;;;;;4.22;2.50;;;;;;;15.03;59.36;102615.97;6274704;22;20004;-59
2022/09/21 08:30:49;;;;;;;6.13;2.50;;;;;;;15.15;58.97;102613.19;6274594;22;20429;-59
2022/09/21 08:33:15;;;;;;;4.93;2.40;;;;;;;15.22;57.87;102620.38;6274586;22;20016;-59
2022/09/21 08:35:40;;;;;;;5.30;2.60;;;;;;;15.34;58.68;102614.78;6275117;22;20054;-60
2022/09/21 08:38:05;;;;;;;3.40;1.90;;;;;;;15.48;59.48;102621.00;6274837;22;20007;-59
2022/09/21 08:40:32;;;;;;;7.07;2.30;;;;;;;15.59;58.44;102617.34;6275733;22;20011;-60
2022/09/21 08:43:01;;;;;;;5.85;1.85;;;;;;;15.70;57.28;102624.06;6273879;22;20010;-59
2022/09/21 08:45:34;;;;;;;7.40;2.30;;;;;;;15.79;56.81;102621.75;6275229;22;20003;-59
2022/09/21 08:48:04;;;;;;;5.63;1.67;;;;;;;15.88;55.93;102623.94;6274943;22;20000;-59
2022/09/21 08:50:48;;;;;;;5.70;2.00;;;;;;;15.95;56.68;102623.78;6274561;22;20003;-59
2022/09/21 08:53:33;;;;;;;5.00;1.50;;;;;;;16.04;55.20;102621.47;6275776;22;20007;-60
2022/09/21 08:55:58;;;;;;;6.45;1.63;;;;;;;16.08;54.51;102617.09;6275184;22;20072;-60
2022/09/21 08:58:26;;;;;;;9.50;1.58;;;;;;;16.24;55.11;102621.91;6275418;22;20078;-60
2022/09/21 09:01:18;;;;;;;6.10;1.30;;;;;;;16.38;55.18;102626.09;6275581;22;20018;-60
2022/09/21 09:03:58;;;;;;;4.25;1.20;;;;;;;16.42;53.02;102624.50;6273761;22;20015;-60
2022/09/21 09:06:30;;;;;;;5.15;1.20;;;;;;;16.50;52.89;102625.22;6275275;22;20000;-60
2022/09/21 09:09:26;;;;;;;4.35;1.55;;;;;;;16.48;53.38;102625.47;6275284;22;20008;-60
2022/09/21 09:12:04;;;;;;;6.30;1.70;;;;;;;16.63;54.38;102636.16;6274746;22;20083;-60
2022/09/21 09:14:29;;;;;;;5.05;1.55;;;;;;;16.73;52.67;102627.06;6275143;22;20011;-59
2022/09/21 09:17:26;;;;;;;7.72;1.67;;;;;;;16.80;53.76;102620.25;6274499;22;20004;-59
2022/09/21 09:20:06;;;;;;;4.13;1.45;;;;;;;16.87;52.72;102628.50;6274987;22;20011;-59
2022/09/21 09:22:39;;;;;;;4.70;1.30;;;;;;;16.95;51.81;102630.03;6274143;22;20420;-59
2022/09/21 09:25:13;;;;;;;5.88;1.63;;;;;;;16.97;52.04;102633.44;6271286;22;20026;-59
2022/09/21 09:27:43;;;;;;;4.78;1.60;;;;;;;17.03;51.52;102627.69;6274282;22;19999;-59
2022/09/21 09:30:19;;;;;;;3.90;1.58;;;;;;;17.09;51.79;102634.22;6274615;22;20657;-60
2022/09/21 09:33:11;;;;;;;3.97;1.10;;;;;;;17.10;52.33;102633.13;6273930;22;20061;-60
2022/09/21 09:35:48;;;;;;;5.45;1.40;;;;;;;17.12;52.01;102625.28;6275175;22;20007;-61
2022/09/21 09:38:22;;;;;;;3.83;1.38;;;;;;;17.26;52.44;102631.44;6273995;22;20424;-61
2022/09/21 09:41:04;;;;;;;5.35;1.30;;;;;;;17.31;51.30;102634.31;6274587;22;20011;-60
2022/09/21 09:43:51;;;;;;;3.55;0.90;;;;;;;17.45;52.46;102629.19;6275249;22;20006;-61
2022/09/21 09:46:58;;;;;;;3.08;1.10;;;;;;;17.46;51.27;102630.91;6273310;22;20371;-61
2022/09/21 09:49:41;;;;;;;6.30;1.20;;;;;;;17.52;52.07;102635.50;6274077;22;20800;-60
2022/09/21 09:52:11;;;;;;;4.65;1.33;;;;;;;17.50;50.16;102630.16;6273888;22;20007;-60
2022/09/21 09:54:37;;;;;;;3.95;1.20;;;;;;;17.42;48.98;102628.63;6274687;22;20019;-60
2022/09/21 09:57:03;;;;;;;2.88;0.90;;;;;;;17.26;48.88;102635.09;6274733;22;20106;-60
2022/09/21 09:59:32;;;;;;;5.15;1.20;;;;;;;17.10;50.04;102628.38;6274047;22;20369;-61
2022/09/21 10:02:18;;;;;;;4.13;1.10;;;;;;;17.07;51.33;102631.66;6274086;22;20079;-61
2022/09/21 10:05:02;;;;;;;3.28;1.10;;;;;;;17.26;51.35;102637.91;6274832;22;20008;-61
2022/09/21 10:07:44;;;;;;;5.63;1.30;;;;;;;17.40;50.92;102632.78;6273180;22;20324;-60
2022/09/21 10:10:39;;;;;;;3.22;1.15;;;;;;;17.47;50.80;102633.47;6275299;22;20035;-60
2022/09/21 10:13:12;;;;;;;4.25;1.10;;;;;;;17.59;49.14;102631.41;6273739;22;20047;-58
2022/09/21 10:15:42;;;;;;;3.67;0.90;;;;;;;17.65;47.92;102629.53;6275337;22;20081;-59
2022/09/21 10:18:18;;;;;;;3.30;1.00;;;;;;;17.79;47.46;102630.88;6277061;22;20007;-59
2022/09/21 10:20:57;;;;;;;2.53;0.90;;;;;;;17.86;46.71;102625.94;6275760;22;20008;-59
2022/09/21 10:23:23;;;;;;;3.35;0.80;;;;;;;17.94;45.94;102626.59;6276088;22;20114;-60
2022/09/21 10:25:54;;;;;;;3.45;0.80;;;;;;;18.01;46.19;102624.47;6276769;22;20085;-59
2022/09/21 10:28:21;;;;;;;6.35;0.90;;;;;;;18.02;45.46;102628.97;6275283;22;20007;-60
2022/09/21 10:30:47;;;;;;;2.58;0.80;;;;;;;17.88;46.18;102625.66;6277045;22;20305;-60
2022/09/21 10:33:19;;;;;;;4.57;1.35;;;;;;;17.81;47.38;102616.59;6276331;22;20012;-60
2022/09/21 10:35:49;;;;;;;7.22;2.10;;;;;;;17.93;49.52;102616.50;6275143;22;20432;-60
2022/09/21 10:38:16;;;;;;;4.65;1.45;;;;;;;17.97;49.75;102615.69;6277019;22;20012;-60
2022/09/21 10:40:43;;;;;;;4.95;1.60;;;;;;;18.10;49.45;102617.28;6275490;22;20003;-59
2022/09/21 10:43:23;;;;;;;6.28;1.90;;;;;;;18.17;49.48;102615.13;6275900;22;20007;-60
2022/09/21 10:45:56;;;;;;;6.32;1.60;;;;;;;18.22;49.46;102611.53;6276804;22;20000;-60
2022/09/21 10:48:24;;;;;;;7.10;1.70;;;;;;;18.14;49.01;102615.63;6276415;22;20007;-60
2022/09/21 10:50:51;;;;;;;4.97;1.63;;;;;;;17.96;49.80;102607.50;6275895;22;20014;-60
2022/09/21 10:53:17;;;;;;;5.63;1.38;;;;;;;17.79;48.53;102597.19;6276209;22;20328;-60
2022/09/21 10:55:49;;;;;;;5.38;1.60;;;;;;;17.63;48.64;102600.84;6275439;22;19996;-60
2022/09/21 10:58:15;;;;;;;2.35;1.10;;;;;;;17.53;48.16;102606.34;6276864;22;20008;-60
2022/09/21 11:00:43;;;;;;;5.68;1.27;;;;;;;17.42;48.97;102603.34;6275314;22;20007;-59
2022/09/21 11:03:29;;;;;;;4.22;1.30;;;;;;;17.49;49.94;102602.31;6276245;22;20010;-60
2022/09/21 11:06:30;;;;;;;5.78;1.10;;;;;;;17.58;50.10;102607.25;6276273;22;20436;-59
2022/09/21 11:09:07;;;;;;;4.78;1.33;;;;;;;17.66;48.74;102614.38;6270801;22;20007;-60
2022/09/21 11:11:36;;;;;;;4.78;1.10;;;;;;;17.67;47.37;102602.88;6276220;22;20004;-59
2022/09/21 11:14:35;;;;;;;2.88;1.10;;;;;;;17.61;49.13;102611.50;6276165;22;20015;-60
2022/09/21 11:17:32;;;;;;;4.57;1.00;;;;;;;17.50;49.14;102606.84;6275212;22;20012;-60
2022/09/21 11:20:15;;;;;;;3.13;0.93;;;;;;;17.38;49.03;102610.59;6276074;22;20062;-60
2022/09/21 11:22:50;;;;;;;3.58;1.00;;;;;;;17.28;48.29;102598.34;6276490;22;20003;-60
2022/09/21 11:25:22;;;;;;;2.40;1.08;;;;;;;17.25;48.99;102604.47;6275162;22;20000;-59
2022/09/21 11:27:55;;;;;;;3.53;1.33;;;;;;;17.21;49.33;102609.72;6276032;22;20061;-60
2022/09/21 11:30:21;;;;;;;3.90;1.60;;;;;;;17.14;49.64;102601.50;6275570;22;20010;-60
2022/09/21 11:33:30;;;;;;;6.13;1.45;;;;;;;17.27;49.39;102603.09;6274009;22;20090;-60
2022/09/21 11:36:04;;;;;;;4.93;1.40;;;;;;;17.40;48.55;102613.97;6276365;22;20007;-59
2022/09/21 11:38:45;;;;;;;3.38;1.17;;;;;;;17.48;47.64;102601.47;6275913;22;20014;-60
2022/09/21 11:41:23;;;;;;;4.43;1.00;;;;;;;17.58;48.53;102601.63;6275540;22;20325;-59
2022/09/21 11:43:56;;;;;;;4.85;1.10;;;;;;;17.56;46.25;102595.41;6276109;22;20371;-59
2022/09/21 11:46:44;;;;;;;3.67;1.17;;;;;;;17.64;47.70;102591.31;6275110;22;20091;-59